Data for 01/26/2018

Time Sea-Level Adjusted Pressure Absolute Pressure Temperature Relative Humidity Dew Point   
(mb) (inHg) (mb) (inHg) (C) (F) (%) (C) (F)
00:05 1012 29.88 841 24.83 -2.3 27.9 52 -11 12.2
00:10 1012 29.88 841 24.83 -2.3 27.8 49 -11.8 10.8
00:15 1012 29.88 841 24.83 -2.3 27.9 51 -11 12.2
00:20 1012 29.88 841 24.83 -2.3 27.9 50 -11.2 11.8
00:25 1012 29.88 841 24.83 -2.3 27.9 50 -11.5 11.4
00:30 1012 29.88 841 24.83 -2.2 28 50 -11.3 11.6
00:35 1012 29.88 841 24.83 -2.2 28 50 -11.4 11.5
00:40 1012 29.88 841 24.83 -2.2 28 50 -11.2 11.8
00:45 1012 29.88 841 24.83 -2.2 28.1 47 -12 10.3
00:50 1012 29.88 841 24.83 -2.1 28.3 48 -11.7 11
00:55 1012 29.88 841 24.83 -2.1 28.3 46 -12.2 10
01:00 1012 29.88 841 24.83 -2 28.4 46 -12 10.3
01:05 1012 29.88 841 24.83 -2.1 28.2 46 -12.2 10
01:10 1012 29.88 842 24.86 -2.1 28.3 46 -12.2 10
01:15 1012 29.88 842 24.86 -2 28.3 45 -12.3 9.8
01:20 1012 29.88 842 24.86 -2 28.5 45 -12.5 9.6
01:25 1013 29.91 842 24.86 -2 28.4 46 -12.2 10.1
01:30 1013 29.91 842 24.86 -2.1 28.2 46 -12.4 9.7
01:35 1013 29.91 842 24.86 -2.3 27.9 46 -12.5 9.5
01:40 1013 29.91 842 24.86 -2.3 27.8 47 -12.1 10.1
01:45 1013 29.91 842 24.86 -2.4 27.7 47 -12.1 10.1
01:50 1013 29.91 842 24.86 -2.5 27.5 48 -12 10.5
01:55 1013 29.91 842 24.86 -2.7 27.2 49 -12.1 10.2
02:00 1013 29.91 842 24.86 -2.6 27.3 47 -12.4 9.7
02:05 1013 29.91 842 24.86 -2.6 27.2 47 -12.3 9.8
02:10 1013 29.91 842 24.86 -2.7 27.2 47 -12.5 9.5
02:15 1013 29.91 842 24.86 -2.8 27 49 -12.2 10.1
02:20 1013 29.91 842 24.86 -2.9 26.8 48 -12.4 9.8
02:25 1013 29.91 842 24.86 -3 26.6 49 -12.4 9.7
02:30 1013 29.91 842 24.86 -3.1 26.3 48 -12.8 9
02:35 1013 29.91 842 24.86 -3 26.5 47 -12.9 8.7
02:40 1013 29.91 842 24.86 -3.1 26.4 46 -13.1 8.4
02:45 1013 29.91 842 24.86 -3.1 26.5 46 -13.1 8.4
02:50 1013 29.91 843 24.89 -3.2 26.3 48 -12.8 9
02:55 1013 29.91 843 24.89 -3.3 26.1 46 -13.4 7.8
03:00 1013 29.91 843 24.89 -3 26.5 46 -13.2 8.3
03:05 1013 29.91 843 24.89 -3.1 26.4 45 -13.4 7.9
03:10 1013 29.91 843 24.89 -3.1 26.4 45 -13.4 7.8
03:15 1014 29.94 843 24.89 -3.1 26.3 45 -13.4 7.8
03:20 1014 29.94 843 24.89 -3.3 26.1 46 -13.2 8.2
03:25 1014 29.94 843 24.89 -3.4 25.9 47 -13.1 8.5
03:30 1014 29.94 843 24.89 -3.4 25.8 48 -13.1 8.5
03:35 1014 29.94 843 24.89 -3.4 25.9 47 -13.2 8.3
03:40 1014 29.94 843 24.89 -3.3 26.1 47 -13 8.5
03:45 1014 29.94 843 24.89 -3.4 25.9 48 -13 8.6
03:50 1014 29.94 843 24.89 -3.4 25.9 48 -12.9 8.9
03:55 1014 29.94 843 24.89 -3.3 26 48 -12.8 9
04:00 1014 29.94 843 24.89 -3.4 26 48 -12.8 9
04:05 1014 29.94 843 24.89 -3.5 25.7 50 -12.5 9.5
04:10 1014 29.94 843 24.89 -3.7 25.4 51 -12.4 9.7
04:15 1014 29.94 843 24.89 -3.8 25.2 51 -12.5 9.5
04:20 1014 29.94 844 24.92 -3.8 25.2 51 -12.5 9.4
04:25 1014 29.94 844 24.92 -3.7 25.3 52 -12.3 9.9
04:30 1014 29.94 844 24.92 -3.8 25.1 51 -12.5 9.6
04:35 1014 29.94 844 24.92 -3.7 25.3 51 -12.5 9.4
04:40 1015 29.97 844 24.92 -3.8 25.2 50 -12.6 9.3
04:45 1015 29.97 844 24.92 -3.8 25.1 51 -12.5 9.6
04:50 1015 29.97 844 24.92 -3.9 25 52 -12.3 9.9
04:55 1015 29.97 844 24.92 -3.9 25 51 -12.6 9.2
05:00 1015 29.97 844 24.92 -4 24.9 52 -12.5 9.4
05:05 1015 29.97 844 24.92 -4 24.8 51 -12.7 9.1
05:10 1015 29.97 844 24.92 -4 24.7 50 -13.1 8.4
05:15 1015 29.97 844 24.92 -4 24.9 49 -13.1 8.4
05:20 1015 29.97 844 24.92 -3.9 25 48 -13.3 8
05:25 1015 29.97 844 24.92 -3.8 25.2 48 -13.3 8
05:30 1015 29.97 844 24.92 -3.7 25.3 47 -13.4 7.9
05:35 1015 29.97 844 24.92 -3.7 25.3 47 -13.4 7.8
05:40 1015 29.97 845 24.95 -3.7 25.3 47 -13.5 7.6
05:45 1015 29.97 845 24.95 -3.7 25.4 47 -13.5 7.7
05:50 1015 29.97 845 24.95 -3.6 25.5 47 -13.3 8
05:55 1016 30 845 24.95 -3.7 25.3 47 -13.4 7.8
06:00 1016 30 845 24.95 -3.7 25.4 46 -13.7 7.4
06:05 1016 30 845 24.95 -3.5 25.6 47 -13.3 8
06:10 1016 30 845 24.95 -3.5 25.7 46 -13.4 7.8
06:15 1016 30 845 24.95 -3.5 25.7 47 -13.2 8.3
06:20 1016 30 845 24.95 -3.4 25.8 49 -12.8 9
06:25 1016 30 845 24.95 -3.5 25.7 48 -12.9 8.8
06:30 1016 30 845 24.95 -3.3 26 45 -13.7 7.3
06:35 1016 30 845 24.95 -3.1 26.4 45 -13.5 7.7
06:40 1016 30 845 24.95 -3.1 26.5 45 -13.5 7.7
06:45 1016 30 845 24.95 -3.1 26.5 46 -13.2 8.2
06:50 1016 30 845 24.95 -3 26.6 43 -13.9 7
06:55 1016 30 845 24.95 -2.9 26.8 43 -13.7 7.3
07:00 1016 30 845 24.95 -2.9 26.8 44 -13.4 7.8
07:05 1016 30 845 24.95 -2.9 26.8 43 -13.8 7.2
07:10 1016 30 845 24.95 -2.9 26.7 44 -13.4 7.8
07:15 1016 30 845 24.95 -2.9 26.8 44 -13.4 7.9
07:20 1016 30 846 24.98 -2.8 26.9 43 -13.6 7.5
07:25 1016 30 846 24.98 -2.8 26.9 45 -13.2 8.2
07:30 1016 30 846 24.98 -2.7 27.1 43 -13.5 7.6
07:35 1016 30 846 24.98 -2.7 27.1 43 -13.7 7.4
07:40 1016 30 846 24.98 -2.6 27.2 42 -13.9 6.9
07:45 1016 30 846 24.98 -2.5 27.5 40 -14.3 6.2
07:50 1017 30.03 846 24.98 -2.5 27.6 41 -14.1 6.6
07:55 1017 30.03 846 24.98 -2.6 27.3 43 -13.6 7.5
08:00 1017 30.03 846 24.98 -2.6 27.2 44 -13.3 8
08:05 1017 30.03 846 24.98 -2.6 27.3 43 -13.7 7.4
08:10 1017 30.03 846 24.98 -2.6 27.4 42 -13.8 7.1
08:15 1017 30.03 846 24.98 -2.4 27.7 40 -14.3 6.2
08:20 1017 30.03 846 24.98 -2.3 27.9 40 -14.1 6.6
08:25 1017 30.03 846 24.98 -2.2 28 40 -14.1 6.6
08:30 1017 30.03 846 24.98 -2.2 28 39 -14.4 6.1
08:35 1017 30.03 846 24.98 -2.2 28.1 39 -14.2 6.4
08:40 1017 30.03 846 24.98 -2.2 28 39 -14.3 6.3
08:45 1017 30.03 846 24.98 -2.3 27.9 40 -14.3 6.3
08:50 1017 30.03 846 24.98 -2.3 27.8 40 -14.2 6.4
08:55 1017 30.03 846 24.98 -2.5 27.5 41 -14.1 6.6
09:00 1017 30.03 846 24.98 -2.5 27.5 40 -14.5 5.9
09:05 1017 30.03 846 24.98 -2.2 28 39 -14.5 5.8
09:10 1017 30.03 846 24.98 -2.3 27.8 40 -14.2 6.4
09:15 1017 30.03 846 24.98 -2.4 27.7 40 -14.2 6.4
09:20 1017 30.03 846 24.98 -2.2 28.1 39 -14.3 6.2
09:25 1017 30.03 846 24.98 -1.9 28.6 39 -14.2 6.4
09:30 1017 30.03 846 24.98 -1.9 28.6 40 -13.9 7
09:35 1017 30.03 846 24.98 -1.8 28.7 41 -13.5 7.8
09:40 1017 30.03 846 24.98 -1.7 28.9 41 -13.3 8.1
09:45 1017 30.03 846 24.98 -1.5 29.3 40 -13.4 8
09:50 1017 30.03 846 24.98 -1.3 29.7 40 -13.1 8.4
09:55 1017 30.03 846 24.98 -1.3 29.7 40 -13.1 8.4
10:00 1017 30.03 846 24.98 -1.3 29.7 40 -13.4 7.9
10:05 1017 30.03 846 24.98 -1.1 30 40 -13 8.6
10:10 1017 30.03 846 24.98 -0.9 30.4 39 -13.3 8.1
10:15 1017 30.03 847 25.01 -0.8 30.6 40 -12.9 8.8
10:20 1017 30.03 847 25.01 -0.6 31 40 -12.6 9.3
10:25 1017 30.03 847 25.01 -0.6 31 40 -12.7 9.2
10:30 1017 30.03 846 24.98 -0.5 31.2 39 -12.7 9.2
10:35 1017 30.03 846 24.98 -0.3 31.4 42 -11.8 10.7
10:40 1017 30.03 846 24.98 -0.2 31.6 39 -12.5 9.6
10:45 1017 30.03 846 24.98 -0.3 31.5 40 -12.2 10
10:50 1017 30.03 846 24.98 -0.4 31.3 40 -12.4 9.6
10:55 1017 30.03 846 24.98 -0.2 31.7 39 -12.4 9.6
11:00 1017 30.03 846 24.98 0.3 32.5 39 -12.1 10.1
11:05 1017 30.03 846 24.98 0.6 33 39 -11.8 10.8
11:10 1017 30.03 846 24.98 0.5 32.9 37 -12.7 9.1
11:15 1017 30.03 846 24.98 0.6 33 39 -11.9 10.5
11:20 1017 30.03 846 24.98 0.7 33.2 37 -12.3 9.8
11:25 1017 30.03 846 24.98 0.4 32.7 38 -12.2 10.1
11:30 1017 30.03 846 24.98 -0.1 31.9 39 -12.4 9.7
11:35 1017 30.03 846 24.98 -0.2 31.7 40 -12.3 9.9
11:40 1017 30.03 846 24.98 -0.3 31.5 40 -12.2 10
11:45 1017 30.03 846 24.98 -0.3 31.5 40 -12.3 9.8
11:50 1017 30.03 846 24.98 -0.2 31.6 42 -11.7 10.9
11:55 1017 30.03 846 24.98 -0.1 31.9 42 -11.6 11.1
12:00 1017 30.03 846 24.98 -0.1 31.9 40 -12 10.4
12:05 1017 30.03 846 24.98 0.6 33 39 -11.8 10.7
12:10 1017 30.03 846 24.98 0.5 32.8 40 -11.6 11.1
12:15 1017 30.03 846 24.98 0.5 33 41 -11.3 11.7
12:20 1017 30.03 846 24.98 0.3 32.6 40 -11.8 10.8
12:25 1017 30.03 846 24.98 0.4 32.6 39 -12 10.4
12:30 1017 30.03 846 24.98 0.6 33.1 40 -11.6 11.1
12:35 1017 30.03 846 24.98 1.1 33.9 39 -11.5 11.3
12:40 1017 30.03 846 24.98 1 33.8 39 -11.4 11.5
12:45 1016 30 846 24.98 1.3 34.4 38 -11.5 11.3
12:50 1016 30 846 24.98 0.9 33.7 39 -11.4 11.5
12:55 1016 30 846 24.98 0.7 33.2 41 -11.2 11.8
13:00 1016 30 846 24.98 0.1 32.2 45 -10.6 13
13:05 1016 30 846 24.98 0.1 32.1 45 -10.6 12.9
13:10 1017 30.03 846 24.98 0.2 32.3 45 -10.3 13.5
13:15 1016 30 846 24.98 -0 31.9 45 -10.6 12.9
13:20 1017 30.03 846 24.98 -0 32 46 -10.4 13.2
13:25 1017 30.03 846 24.98 -0.2 31.7 46 -10.6 12.9
13:30 1017 30.03 846 24.98 -0.2 31.6 46 -10.4 13.3
13:35 1017 30.03 846 24.98 -0.3 31.5 46 -10.7 12.8
13:40 1017 30.03 846 24.98 -0.2 31.7 45 -10.7 12.7
13:45 1017 30.03 846 24.98 0.2 32.3 45 -10.4 13.2
13:50 1017 30.03 846 24.98 0.1 32.1 44 -10.7 12.7
13:55 1017 30.03 846 24.98 0.5 33 43 -10.7 12.7
14:00 1017 30.03 846 24.98 1.3 34.3 40 -10.8 12.5
14:05 1017 30.03 846 24.98 0.5 32.9 43 -10.7 12.7
14:10 1017 30.03 846 24.98 0.3 32.5 40 -11.7 11
14:15 1017 30.03 846 24.98 0.1 32.3 41 -11.7 10.9
14:20 1017 30.03 846 24.98 0.1 32.2 40 -12 10.4
14:25 1017 30.03 846 24.98 0.3 32.6 39 -12.2 10.1
14:30 1017 30.03 846 24.98 0.4 32.8 38 -12.1 10.1
14:35 1017 30.03 846 24.98 0.5 32.9 41 -11.2 11.8
14:40 1017 30.03 846 24.98 -0.1 31.8 48 -9.9 14.2
14:45 1017 30.03 846 24.98 -0.4 31.3 47 -10.4 13.3
14:50 1017 30.03 846 24.98 -0.4 31.3 47 -10.4 13.3
14:55 1017 30.03 846 24.98 -0.3 31.4 47 -10.4 13.3
15:00 1017 30.03 846 24.98 -0.3 31.4 49 -9.9 14.2
15:05 1017 30.03 846 24.98 -0.3 31.4 46 -10.5 13.2
15:10 1017 30.03 847 25.01 -0.3 31.4 48 -10 13.9
15:15 1017 30.03 847 25.01 -0.7 30.8 56 -8.4 16.9
15:20 1018 30.06 847 25.01 -1 30.2 62 -7.4 18.8
15:25 1018 30.06 847 25.01 -1.5 29.2 69 -6.4 20.4
15:30 1018 30.06 847 25.01 -1.9 28.5 73 -6.1 21
15:35 1018 30.06 847 25.01 -2.1 28.2 71 -6.7 19.9
15:40 1018 30.06 847 25.01 -1.8 28.8 65 -7.4 18.6
15:45 1018 30.06 847 25.01 -1.5 29.3 64 -7.6 18.4
15:50 1018 30.06 847 25.01 -1.4 29.5 58 -8.6 16.6
15:55 1018 30.06 847 25.01 -1.2 29.9 55 -9.1 15.7
16:00 1018 30.06 847 25.01 -1 30.2 49 -10.4 13.3
16:05 1018 30.06 847 25.01 -1 30.2 47 -11 12.2
16:10 1018 30.06 847 25.01 -1.1 30 48 -10.9 12.4
16:15 1018 30.06 848 25.04 -1.3 29.7 50 -10.5 13
16:20 1019 30.09 848 25.04 -1.5 29.3 51 -10.5 13.1
16:25 1019 30.09 848 25.04 -1.6 29 51 -10.4 13.2
16:30 1019 30.09 848 25.04 -1.7 28.9 52 -10.3 13.5
16:35 1019 30.09 848 25.04 -1.9 28.7 53 -10.3 13.5
16:40 1019 30.09 848 25.04 -2 28.5 54 -10.2 13.7
16:45 1019 30.09 848 25.04 -2 28.4 53 -10.4 13.4
16:50 1019 30.09 848 25.04 -2.1 28.3 52 -10.6 12.9
16:55 1019 30.09 848 25.04 -2.2 28.1 55 -10.1 13.8
17:00 1019 30.09 848 25.04 -2.3 27.9 57 -9.8 14.4
17:05 1019 30.09 848 25.04 -2.4 27.6 58 -9.5 14.8
17:10 1019 30.09 848 25.04 -2.5 27.5 58 -9.7 14.6
17:15 1019 30.09 848 25.04 -2.7 27.2 58 -9.9 14.3
17:20 1019 30.09 848 25.04 -2.7 27.1 59 -9.6 14.7
17:25 1019 30.09 848 25.04 -2.7 27.1 58 -9.9 14.2
17:30 1019 30.09 848 25.04 -2.8 27 58 -10 14
17:35 1019 30.09 848 25.04 -2.6 27.3 58 -9.9 14.2
17:40 1019 30.09 848 25.04 -2.5 27.6 57 -9.9 14.1
17:45 1019 30.09 848 25.04 -2.4 27.6 56 -10.1 13.7
17:50 1019 30.09 848 25.04 -2.5 27.6 56 -10.1 13.9
17:55 1019 30.09 848 25.04 -2.4 27.7 56 -10.1 13.8
18:00 1019 30.09 849 25.07 -2.4 27.7 56 -10.1 13.8
18:05 1019 30.09 849 25.07 -2.4 27.6 54 -10.4 13.2
18:10 1019 30.09 849 25.07 -2.5 27.5 54 -10.5 13
18:15 1019 30.09 849 25.07 -2.5 27.4 55 -10.5 13.2
18:20 1019 30.09 849 25.07 -2.7 27.2 54 -10.6 12.9
18:25 1019 30.09 849 25.07 -2.8 27 54 -10.8 12.5
18:30 1019 30.09 849 25.07 -2.8 27 53 -11 12.3
18:35 1019 30.09 848 25.04 -2.7 27.2 51 -11.4 11.4
18:40 1019 30.09 848 25.04 -2.5 27.6 50 -11.4 11.4
18:45 1019 30.09 848 25.04 -2.5 27.5 50 -11.5 11.3
18:50 1019 30.09 848 25.04 -2.5 27.6 49 -11.7 11
18:55 1019 30.09 848 25.04 -2.5 27.6 48 -12 10.4
19:00 1019 30.09 848 25.04 -2.4 27.6 49 -11.8 10.7
19:05 1019 30.09 849 25.07 -2.5 27.5 48 -12 10.3
19:10 1019 30.09 849 25.07 -2.7 27.2 49 -11.8 10.7
19:15 1019 30.09 849 25.07 -2.7 27.1 50 -11.8 10.7
19:20 1019 30.09 849 25.07 -2.7 27.1 49 -11.9 10.5
19:25 1019 30.09 849 25.07 -2.7 27.2 50 -11.7 10.9
19:30 1019 30.09 849 25.07 -2.7 27.1 50 -11.7 10.9
19:35 1020 30.12 849 25.07 -2.8 27 50 -11.8 10.8
19:40 1020 30.12 849 25.07 -3 26.6 53 -11.2 11.8
19:45 1020 30.12 849 25.07 -3.2 26.3 53 -11.6 11.2
19:50 1020 30.12 849 25.07 -3.3 26 53 -11.5 11.3
19:55 1020 30.12 849 25.07 -3.4 25.8 54 -11.4 11.4
20:00 1020 30.12 849 25.07 -3.6 25.6 53 -11.7 10.9
20:05 1020 30.12 849 25.07 -3.6 25.5 51 -12.4 9.6
20:10 1020 30.12 849 25.07 -3.5 25.6 50 -12.5 9.5
20:15 1020 30.12 849 25.07 -3.6 25.5 51 -12.5 9.6
20:20 1020 30.12 849 25.07 -3.8 25.2 52 -12.3 9.8
20:25 1020 30.12 849 25.07 -3.8 25.1 51 -12.6 9.3
20:30 1020 30.12 849 25.07 -3.7 25.3 50 -12.7 9.1
20:35 1020 30.12 849 25.07 -3.7 25.3 51 -12.4 9.6
20:40 1020 30.12 849 25.07 -3.7 25.3 51 -12.5 9.6
20:45 1020 30.12 849 25.07 -3.7 25.3 49 -12.9 8.8
20:50 1020 30.12 849 25.07 -3.7 25.4 49 -12.9 8.9
20:55 1020 30.12 849 25.07 -3.7 25.3 47 -13.4 8
21:00 1020 30.12 849 25.07 -3.7 25.3 46 -13.7 7.3
21:05 1020 30.12 849 25.07 -3.7 25.3 47 -13.6 7.5
21:10 1020 30.12 849 25.07 -3.8 25.2 45 -14 6.8
21:15 1020 30.12 849 25.07 -3.7 25.3 43 -14.5 5.9
21:20 1020 30.12 849 25.07 -3.7 25.3 45 -14 6.7
21:25 1020 30.12 849 25.07 -3.8 25.1 44 -14.4 6.1
21:30 1020 30.12 849 25.07 -3.9 25 44 -14.4 6
21:35 1020 30.12 849 25.07 -3.5 25.8 41 -14.9 5.2
21:40 1020 30.12 849 25.07 -3.2 26.3 40 -15 5
21:45 1020 30.12 849 25.07 -3.2 26.3 42 -14.4 6.1
21:50 1020 30.12 849 25.07 -3.4 25.8 42 -14.6 5.8
21:55 1020 30.12 849 25.07 -3.6 25.5 42 -14.8 5.4
22:00 1020 30.12 849 25.07 -3.6 25.5 42 -14.9 5.2
22:05 1020 30.12 849 25.07 -3.6 25.6 40 -15.2 4.6
22:10 1020 30.12 849 25.07 -3.4 25.9 41 -14.9 5.2
22:15 1020 30.12 849 25.07 -3.4 25.9 41 -14.7 5.5
22:20 1020 30.12 849 25.07 -3.3 26 44 -14 6.8
22:25 1020 30.12 849 25.07 -3.4 25.8 45 -13.7 7.4
22:30 1020 30.12 850 25.1 -3.7 25.4 47 -13.5 7.7
22:35 1020 30.12 850 25.1 -3.8 25.1 45 -14.1 6.6
22:40 1020 30.12 850 25.1 -3.4 25.9 40 -15 4.9
22:45 1020 30.12 850 25.1 -2.8 26.9 39 -15.1 4.8
22:50 1020 30.12 850 25.1 -2.6 27.3 38 -15.1 4.9
22:55 1020 30.12 850 25.1 -2.7 27.2 38 -15.1 4.8
23:00 1020 30.12 850 25.1 -2.7 27.2 37 -15.4 4.4
23:05 1020 30.12 850 25.1 -2.6 27.4 37 -15.3 4.5
23:10 1020 30.12 850 25.1 -2.6 27.3 39 -14.9 5.2
23:15 1020 30.12 849 25.07 -2.7 27.1 39 -14.9 5.2
23:20 1020 30.12 849 25.07 -2.8 27 40 -14.7 5.5
23:25 1020 30.12 849 25.07 -2.8 26.9 40 -14.7 5.5
23:30 1020 30.12 849 25.07 -2.8 27 39 -14.8 5.4
23:35 1020 30.12 849 25.07 -2.7 27.1 40 -14.6 5.7
23:40 1020 30.12 850 25.1 -2.7 27.1 40 -14.4 6.1
23:45 1020 30.12 850 25.1 -2.8 27 40 -14.5 6
23:50 1020 30.12 850 25.1 -2.7 27.1 40 -14.6 5.7
23:55 1020 30.12 850 25.1 -2.7 27.2 40 -14.5 5.8
24:00 1020 30.12 850 25.1 -2.7 27.1 40 -14.6 5.8